Foshan, China
Current Conditions -  °F | °C
As of 7:30 PM on Saturday 25 Oct 2014 (Local Time) from ZGGG Reporting Station
Haze Haze  
Wind Chill: 79°   Ceiling: Unl
Heat Index: 81°   Visibility: 2.5mi
Dew Point: 70°   Wind: 4mph
Humidity: 74%   Direction: 130°SE
Pressure: 30"   Gusts: NA
Location:  23.03°N, 113.12°E
Report Text: ZGGG 251130Z 13002MPS 4000 HZ NSC 26/21 Q1016 NOSIG
Loading
Personal Weather Stations






























Interactive Weather Map
Tropical Storm Tracking
New forecast layout! Learn more

10-Day Weather Forecast

Advertisements
Track Severe Weather on mobile